sensor_id;sensor_type;location;lat;lon;timestamp;temperature;humidity
2054;DHT22;1032;52.542;13.440;2022-07-24T00:00:50;18.40;80.30
2054;DHT22;1032;52.542;13.440;2022-07-24T00:03:17;18.00;80.10
2054;DHT22;1032;52.542;13.440;2022-07-24T00:05:44;18.40;80.00
2054;DHT22;1032;52.542;13.440;2022-07-24T00:08:10;18.70;81.20
2054;DHT22;1032;52.542;13.440;2022-07-24T00:10:38;18.60;81.10
2054;DHT22;1032;52.542;13.440;2022-07-24T00:13:05;18.10;80.80
2054;DHT22;1032;52.542;13.440;2022-07-24T00:15:31;18.00;80.00
2054;DHT22;1032;52.542;13.440;2022-07-24T00:17:58;18.20;81.20
2054;DHT22;1032;52.542;13.440;2022-07-24T00:20:25;18.10;81.30
2054;DHT22;1032;52.542;13.440;2022-07-24T00:22:51;18.20;81.60
2054;DHT22;1032;52.542;13.440;2022-07-24T00:25:18;18.50;82.00
2054;DHT22;1032;52.542;13.440;2022-07-24T00:27:46;18.10;81.80
2054;DHT22;1032;52.542;13.440;2022-07-24T00:30:13;18.50;82.50
2054;DHT22;1032;52.542;13.440;2022-07-24T00:32:39;18.50;82.70
2054;DHT22;1032;52.542;13.440;2022-07-24T00:35:07;18.30;82.40
2054;DHT22;1032;52.542;13.440;2022-07-24T00:37:33;18.30;82.30
2054;DHT22;1032;52.542;13.440;2022-07-24T00:40:00;18.00;81.30
2054;DHT22;1032;52.542;13.440;2022-07-24T00:42:26;18.10;81.50
2054;DHT22;1032;52.542;13.440;2022-07-24T00:44:55;18.00;82.20
2054;DHT22;1032;52.542;13.440;2022-07-24T00:47:21;18.00;82.20
2054;DHT22;1032;52.542;13.440;2022-07-24T00:49:48;17.70;81.40
2054;DHT22;1032;52.542;13.440;2022-07-24T00:52:14;18.10;82.60
2054;DHT22;1032;52.542;13.440;2022-07-24T00:54:41;18.00;82.70
2054;DHT22;1032;52.542;13.440;2022-07-24T00:57:07;18.00;82.90
2054;DHT22;1032;52.542;13.440;2022-07-24T00:59:34;17.70;82.70
2054;DHT22;1032;52.542;13.440;2022-07-24T01:02:03;17.80;83.00
2054;DHT22;1032;52.542;13.440;2022-07-24T01:04:30;17.50;82.90
2054;DHT22;1032;52.542;13.440;2022-07-24T01:06:57;17.80;82.60
2054;DHT22;1032;52.542;13.440;2022-07-24T01:09:24;17.90;82.90
2054;DHT22;1032;52.542;13.440;2022-07-24T01:11:51;18.10;84.00
2054;DHT22;1032;52.542;13.440;2022-07-24T01:14:18;18.00;84.10
2054;DHT22;1032;52.542;13.440;2022-07-24T01:16:44;17.80;83.40
2054;DHT22;1032;52.542;13.440;2022-07-24T01:19:13;17.60;83.40
2054;DHT22;1032;52.542;13.440;2022-07-24T01:21:45;17.70;84.30
2054;DHT22;1032;52.542;13.440;2022-07-24T01:24:14;17.70;85.40
2054;DHT22;1032;52.542;13.440;2022-07-24T01:26:41;17.90;84.80
2054;DHT22;1032;52.542;13.440;2022-07-24T01:29:08;17.70;84.10
2054;DHT22;1032;52.542;13.440;2022-07-24T01:31:34;17.60;84.20
2054;DHT22;1032;52.542;13.440;2022-07-24T01:34:02;17.70;84.80
2054;DHT22;1032;52.542;13.440;2022-07-24T01:36:28;17.60;85.40
2054;DHT22;1032;52.542;13.440;2022-07-24T01:38:56;17.40;84.90
2054;DHT22;1032;52.542;13.440;2022-07-24T01:41:23;17.90;86.40
2054;DHT22;1032;52.542;13.440;2022-07-24T01:43:50;17.90;86.40
2054;DHT22;1032;52.542;13.440;2022-07-24T01:46:16;17.90;86.50
2054;DHT22;1032;52.542;13.440;2022-07-24T01:48:43;17.80;86.70
2054;DHT22;1032;52.542;13.440;2022-07-24T01:51:10;17.50;86.60
2054;DHT22;1032;52.542;13.440;2022-07-24T01:53:37;17.40;86.70
2054;DHT22;1032;52.542;13.440;2022-07-24T01:56:05;17.10;86.70
2054;DHT22;1032;52.542;13.440;2022-07-24T01:58:32;17.40;87.30
2054;DHT22;1032;52.542;13.440;2022-07-24T02:00:58;17.50;87.10
2054;DHT22;1032;52.542;13.440;2022-07-24T02:03:25;17.40;87.90
2054;DHT22;1032;52.542;13.440;2022-07-24T02:05:52;17.30;87.40
2054;DHT22;1032;52.542;13.440;2022-07-24T02:08:18;17.10;87.20
2054;DHT22;1032;52.542;13.440;2022-07-24T02:10:45;17.40;87.70
2054;DHT22;1032;52.542;13.440;2022-07-24T02:13:13;17.30;88.50
2054;DHT22;1032;52.542;13.440;2022-07-24T02:15:40;17.00;87.70
2054;DHT22;1032;52.542;13.440;2022-07-24T02:18:06;17.60;89.10
2054;DHT22;1032;52.542;13.440;2022-07-24T02:20:33;17.00;87.90
2054;DHT22;1032;52.542;13.440;2022-07-24T02:23:00;17.60;89.40
2054;DHT22;1032;52.542;13.440;2022-07-24T02:25:26;17.00;88.20
2054;DHT22;1032;52.542;13.440;2022-07-24T02:27:53;17.60;89.70
2054;DHT22;1032;52.542;13.440;2022-07-24T02:30:22;17.30;89.40
2054;DHT22;1032;52.542;13.440;2022-07-24T02:32:49;17.00;89.00
2054;DHT22;1032;52.542;13.440;2022-07-24T02:35:17;17.10;89.30
2054;DHT22;1032;52.542;13.440;2022-07-24T02:37:44;16.80;88.70
2054;DHT22;1032;52.542;13.440;2022-07-24T02:40:12;17.00;89.60
2054;DHT22;1032;52.542;13.440;2022-07-24T02:42:39;17.40;90.10
2054;DHT22;1032;52.542;13.440;2022-07-24T02:45:06;17.20;89.40
2054;DHT22;1032;52.542;13.440;2022-07-24T02:47:35;17.00;89.90
2054;DHT22;1032;52.542;13.440;2022-07-24T02:50:02;17.20;90.10
2054;DHT22;1032;52.542;13.440;2022-07-24T02:52:29;17.00;89.60
2054;DHT22;1032;52.542;13.440;2022-07-24T02:54:55;17.10;90.30
2054;DHT22;1032;52.542;13.440;2022-07-24T02:57:22;17.00;89.90
2054;DHT22;1032;52.542;13.440;2022-07-24T02:59:48;16.80;90.20
2054;DHT22;1032;52.542;13.440;2022-07-24T03:02:17;17.60;90.60
2054;DHT22;1032;52.542;13.440;2022-07-24T03:04:45;17.30;90.50
2054;DHT22;1032;52.542;13.440;2022-07-24T03:07:12;16.70;89.80
2054;DHT22;1032;52.542;13.440;2022-07-24T03:09:38;16.80;90.00
2054;DHT22;1032;52.542;13.440;2022-07-24T03:12:05;16.80;90.40
2054;DHT22;1032;52.542;13.440;2022-07-24T03:14:32;16.80;90.40
2054;DHT22;1032;52.542;13.440;2022-07-24T03:16:59;17.00;90.60
2054;DHT22;1032;52.542;13.440;2022-07-24T03:19:25;16.70;90.40
2054;DHT22;1032;52.542;13.440;2022-07-24T03:21:53;16.30;90.30
2054;DHT22;1032;52.542;13.440;2022-07-24T03:26:47;16.60;90.30
2054;DHT22;1032;52.542;13.440;2022-07-24T03:29:13;16.20;90.30
2054;DHT22;1032;52.542;13.440;2022-07-24T03:31:40;16.80;90.70
2054;DHT22;1032;52.542;13.440;2022-07-24T03:34:06;16.70;90.70
2054;DHT22;1032;52.542;13.440;2022-07-24T03:36:33;16.70;90.80
2054;DHT22;1032;52.542;13.440;2022-07-24T03:39:01;16.20;90.50
2054;DHT22;1032;52.542;13.440;2022-07-24T03:41:28;17.20;91.00
2054;DHT22;1032;52.542;13.440;2022-07-24T03:43:55;16.60;90.80
2054;DHT22;1032;52.542;13.440;2022-07-24T03:46:21;17.10;91.00
2054;DHT22;1032;52.542;13.440;2022-07-24T03:48:48;16.60;90.80
2054;DHT22;1032;52.542;13.440;2022-07-24T03:51:15;17.00;91.00
2054;DHT22;1032;52.542;13.440;2022-07-24T03:53:42;16.50;90.70
2054;DHT22;1032;52.542;13.440;2022-07-24T03:56:10;17.10;91.00
2054;DHT22;1032;52.542;13.440;2022-07-24T03:58:37;17.30;91.10
2054;DHT22;1032;52.542;13.440;2022-07-24T04:01:03;16.90;90.90
2054;DHT22;1032;52.542;13.440;2022-07-24T04:03:30;16.70;90.80
2054;DHT22;1032;52.542;13.440;2022-07-24T04:05:56;16.30;90.60
2054;DHT22;1032;52.542;13.440;2022-07-24T04:08:23;16.70;90.80
2054;DHT22;1032;52.542;13.440;2022-07-24T04:10:50;16.80;90.90
2054;DHT22;1032;52.542;13.440;2022-07-24T04:13:23;16.90;90.90
2054;DHT22;1032;52.542;13.440;2022-07-24T04:15:50;17.20;90.90
2054;DHT22;1032;52.542;13.440;2022-07-24T04:18:17;17.20;90.70
2054;DHT22;1032;52.542;13.440;2022-07-24T04:20:43;17.30;90.60
2054;DHT22;1032;52.542;13.440;2022-07-24T04:23:10;17.70;90.60
2054;DHT22;1032;52.542;13.440;2022-07-24T04:25:37;17.60;90.30
2054;DHT22;1032;52.542;13.440;2022-07-24T04:28:04;18.30;90.40
2054;DHT22;1032;52.542;13.440;2022-07-24T04:30:31;17.30;89.30
2054;DHT22;1032;52.542;13.440;2022-07-24T04:32:58;17.50;88.90
2054;DHT22;1032;52.542;13.440;2022-07-24T04:35:25;18.20;89.00
2054;DHT22;1032;52.542;13.440;2022-07-24T04:37:52;18.00;88.40
2054;DHT22;1032;52.542;13.440;2022-07-24T04:40:18;18.20;88.10
2054;DHT22;1032;52.542;13.440;2022-07-24T04:42:45;18.20;87.70
2054;DHT22;1032;52.542;13.440;2022-07-24T04:45:11;18.30;87.40
2054;DHT22;1032;52.542;13.440;2022-07-24T04:47:39;18.20;87.00
2054;DHT22;1032;52.542;13.440;2022-07-24T04:50:07;18.50;87.00
2054;DHT22;1032;52.542;13.440;2022-07-24T04:52:34;18.50;86.80
2054;DHT22;1032;52.542;13.440;2022-07-24T04:55:01;18.60;86.70
2054;DHT22;1032;52.542;13.440;2022-07-24T04:57:27;18.60;86.40
2054;DHT22;1032;52.542;13.440;2022-07-24T04:59:54;18.70;86.30
2054;DHT22;1032;52.542;13.440;2022-07-24T05:02:20;18.80;86.10
2054;DHT22;1032;52.542;13.440;2022-07-24T05:04:48;19.10;86.30
2054;DHT22;1032;52.542;13.440;2022-07-24T05:07:15;19.00;86.00
2054;DHT22;1032;52.542;13.440;2022-07-24T05:09:42;18.70;85.30
2054;DHT22;1032;52.542;13.440;2022-07-24T05:12:09;18.70;85.00
2054;DHT22;1032;52.542;13.440;2022-07-24T05:14:35;19.10;83.60
2054;DHT22;1032;52.542;13.440;2022-07-24T05:17:02;19.30;84.80
2054;DHT22;1032;52.542;13.440;2022-07-24T05:19:28;19.20;84.40
2054;DHT22;1032;52.542;13.440;2022-07-24T05:21:56;19.40;84.60
2054;DHT22;1032;52.542;13.440;2022-07-24T05:24:23;19.20;83.50
2054;DHT22;1032;52.542;13.440;2022-07-24T05:26:50;19.20;84.20
2054;DHT22;1032;52.542;13.440;2022-07-24T05:29:17;19.40;84.30
2054;DHT22;1032;52.542;13.440;2022-07-24T05:31:43;19.30;83.80
2054;DHT22;1032;52.542;13.440;2022-07-24T05:34:10;19.50;83.60
2054;DHT22;1032;52.542;13.440;2022-07-24T05:36:36;19.50;83.40
2054;DHT22;1032;52.542;13.440;2022-07-24T05:39:05;19.60;83.20
2054;DHT22;1032;52.542;13.440;2022-07-24T05:41:31;19.40;82.70
2054;DHT22;1032;52.542;13.440;2022-07-24T05:43:58;19.60;82.70
2054;DHT22;1032;52.542;13.440;2022-07-24T05:46:24;19.70;82.50
2054;DHT22;1032;52.542;13.440;2022-07-24T05:48:51;19.80;82.20
2054;DHT22;1032;52.542;13.440;2022-07-24T05:51:18;19.90;81.90
2054;DHT22;1032;52.542;13.440;2022-07-24T05:53:44;19.80;81.50
2054;DHT22;1032;52.542;13.440;2022-07-24T05:56:12;19.90;81.20
2054;DHT22;1032;52.542;13.440;2022-07-24T05:58:39;20.30;81.30
2054;DHT22;1032;52.542;13.440;2022-07-24T06:01:05;17.90;78.40
2054;DHT22;1032;52.542;13.440;2022-07-24T06:03:32;20.40;80.80
2054;DHT22;1032;52.542;13.440;2022-07-24T06:05:59;20.20;80.30
2054;DHT22;1032;52.542;13.440;2022-07-24T06:08:25;19.80;79.50
2054;DHT22;1032;52.542;13.440;2022-07-24T06:10:52;20.00;79.80
2054;DHT22;1032;52.542;13.440;2022-07-24T06:13:20;20.60;80.70
2054;DHT22;1032;52.542;13.440;2022-07-24T06:15:46;20.30;80.20
2054;DHT22;1032;52.542;13.440;2022-07-24T06:18:13;20.40;79.90
2054;DHT22;1032;52.542;13.440;2022-07-24T06:20:40;20.20;79.40
2054;DHT22;1032;52.542;13.440;2022-07-24T06:23:07;20.60;79.70
2054;DHT22;1032;52.542;13.440;2022-07-24T06:25:33;20.70;79.70
2054;DHT22;1032;52.542;13.440;2022-07-24T06:28:00;20.70;79.40
2054;DHT22;1032;52.542;13.440;2022-07-24T06:30:28;20.40;78.50
2054;DHT22;1032;52.542;13.440;2022-07-24T06:32:58;20.50;78.50
2054;DHT22;1032;52.542;13.440;2022-07-24T06:35:26;20.60;78.10
2054;DHT22;1032;52.542;13.440;2022-07-24T06:37:53;20.40;77.70
2054;DHT22;1032;52.542;13.440;2022-07-24T06:40:21;20.30;77.70
2054;DHT22;1032;52.542;13.440;2022-07-24T06:42:48;20.70;77.90
2054;DHT22;1032;52.542;13.440;2022-07-24T06:45:15;21.20;78.30
2054;DHT22;1032;52.542;13.440;2022-07-24T06:47:43;21.00;78.10
2054;DHT22;1032;52.542;13.440;2022-07-24T06:50:11;20.80;77.80
2054;DHT22;1032;52.542;13.440;2022-07-24T06:52:38;20.90;77.70
2054;DHT22;1032;52.542;13.440;2022-07-24T06:55:06;20.80;77.30
2054;DHT22;1032;52.542;13.440;2022-07-24T06:57:33;21.30;78.70
2054;DHT22;1032;52.542;13.440;2022-07-24T07:00:00;20.90;77.30
2054;DHT22;1032;52.542;13.440;2022-07-24T07:02:26;21.00;77.50
2054;DHT22;1032;52.542;13.440;2022-07-24T07:04:54;21.30;77.90
2054;DHT22;1032;52.542;13.440;2022-07-24T07:07:21;21.10;77.60
2054;DHT22;1032;52.542;13.440;2022-07-24T07:09:49;21.30;78.00
2054;DHT22;1032;52.542;13.440;2022-07-24T07:12:16;21.50;78.60
2054;DHT22;1032;52.542;13.440;2022-07-24T07:14:43;21.00;78.00
2054;DHT22;1032;52.542;13.440;2022-07-24T07:17:09;20.60;77.30
2054;DHT22;1032;52.542;13.440;2022-07-24T07:19:36;21.10;77.70
2054;DHT22;1032;52.542;13.440;2022-07-24T07:22:04;21.10;77.30
2054;DHT22;1032;52.542;13.440;2022-07-24T07:24:30;21.30;75.90
2054;DHT22;1032;52.542;13.440;2022-07-24T07:26:57;21.10;76.60
2054;DHT22;1032;52.542;13.440;2022-07-24T07:29:23;21.00;76.30
2054;DHT22;1032;52.542;13.440;2022-07-24T07:31:50;21.60;76.80
2054;DHT22;1032;52.542;13.440;2022-07-24T07:34:17;21.50;76.40
2054;DHT22;1032;52.542;13.440;2022-07-24T07:36:43;21.20;76.70
2054;DHT22;1032;52.542;13.440;2022-07-24T07:39:11;20.90;74.70
2054;DHT22;1032;52.542;13.440;2022-07-24T07:41:38;21.20;74.80
2054;DHT22;1032;52.542;13.440;2022-07-24T07:44:05;21.00;74.50
2054;DHT22;1032;52.542;13.440;2022-07-24T07:46:32;21.00;74.80
2054;DHT22;1032;52.542;13.440;2022-07-24T07:48:58;21.30;75.00
2054;DHT22;1032;52.542;13.440;2022-07-24T07:51:25;20.90;74.50
2054;DHT22;1032;52.542;13.440;2022-07-24T07:53:51;21.30;74.80
2054;DHT22;1032;52.542;13.440;2022-07-24T07:56:19;21.80;74.50
2054;DHT22;1032;52.542;13.440;2022-07-24T07:58:46;21.30;73.80
2054;DHT22;1032;52.542;13.440;2022-07-24T08:01:13;21.60;73.90
2054;DHT22;1032;52.542;13.440;2022-07-24T08:03:39;21.20;73.10
2054;DHT22;1032;52.542;13.440;2022-07-24T08:06:07;22.00;73.70
2054;DHT22;1032;52.542;13.440;2022-07-24T08:08:33;21.50;73.10
2054;DHT22;1032;52.542;13.440;2022-07-24T08:11:00;21.50;72.90
2054;DHT22;1032;52.542;13.440;2022-07-24T08:13:28;21.40;70.60
2054;DHT22;1032;52.542;13.440;2022-07-24T08:15:54;21.20;69.90
2054;DHT22;1032;52.542;13.440;2022-07-24T08:18:21;21.50;70.30
2054;DHT22;1032;52.542;13.440;2022-07-24T08:20:48;21.20;69.50
2054;DHT22;1032;52.542;13.440;2022-07-24T08:23:15;21.50;69.50
2054;DHT22;1032;52.542;13.440;2022-07-24T08:25:41;21.70;69.20
2054;DHT22;1032;52.542;13.440;2022-07-24T08:28:08;21.70;69.10
2054;DHT22;1032;52.542;13.440;2022-07-24T08:30:36;21.40;68.30
2054;DHT22;1032;52.542;13.440;2022-07-24T08:33:02;21.70;68.40
2054;DHT22;1032;52.542;13.440;2022-07-24T08:35:29;21.90;68.50
2054;DHT22;1032;52.542;13.440;2022-07-24T08:37:56;21.80;68.40
2054;DHT22;1032;52.542;13.440;2022-07-24T08:40:23;22.30;68.90
2054;DHT22;1032;52.542;13.440;2022-07-24T08:42:50;21.80;67.30
2054;DHT22;1032;52.542;13.440;2022-07-24T08:45:16;21.50;66.60
2054;DHT22;1032;52.542;13.440;2022-07-24T08:47:44;21.70;67.10
2054;DHT22;1032;52.542;13.440;2022-07-24T08:50:11;21.90;67.20
2054;DHT22;1032;52.542;13.440;2022-07-24T08:52:38;21.90;67.30
2054;DHT22;1032;52.542;13.440;2022-07-24T08:55:06;21.90;67.50
2054;DHT22;1032;52.542;13.440;2022-07-24T08:57:33;22.10;67.90
2054;DHT22;1032;52.542;13.440;2022-07-24T09:00:00;22.10;67.30
2054;DHT22;1032;52.542;13.440;2022-07-24T09:02:26;22.20;66.90
2054;DHT22;1032;52.542;13.440;2022-07-24T09:05:00;22.40;66.80
2054;DHT22;1032;52.542;13.440;2022-07-24T09:07:28;22.30;66.80
2054;DHT22;1032;52.542;13.440;2022-07-24T09:09:59;22.30;66.50
2054;DHT22;1032;52.542;13.440;2022-07-24T09:12:30;21.90;65.20
2054;DHT22;1032;52.542;13.440;2022-07-24T09:15:14;22.40;65.10
2054;DHT22;1032;52.542;13.440;2022-07-24T09:17:49;22.60;65.50
2054;DHT22;1032;52.542;13.440;2022-07-24T09:20:17;22.50;65.10
2054;DHT22;1032;52.542;13.440;2022-07-24T09:22:44;22.40;64.40
2054;DHT22;1032;52.542;13.440;2022-07-24T09:25:13;22.10;64.00
2054;DHT22;1032;52.542;13.440;2022-07-24T09:27:46;22.40;63.80
2054;DHT22;1032;52.542;13.440;2022-07-24T09:30:22;22.60;63.60
2054;DHT22;1032;52.542;13.440;2022-07-24T09:32:52;22.70;63.80
2054;DHT22;1032;52.542;13.440;2022-07-24T09:35:24;22.90;63.30
2054;DHT22;1032;52.542;13.440;2022-07-24T09:37:55;22.60;61.90
2054;DHT22;1032;52.542;13.440;2022-07-24T09:40:28;22.50;61.80
2054;DHT22;1032;52.542;13.440;2022-07-24T09:42:58;22.70;62.50
2054;DHT22;1032;52.542;13.440;2022-07-24T09:45:51;22.70;63.70
2054;DHT22;1032;52.542;13.440;2022-07-24T09:48:21;22.80;64.50
2054;DHT22;1032;52.542;13.440;2022-07-24T09:50:51;22.80;63.00
2054;DHT22;1032;52.542;13.440;2022-07-24T09:53:19;22.80;62.90
2054;DHT22;1032;52.542;13.440;2022-07-24T09:55:57;23.20;63.30
2054;DHT22;1032;52.542;13.440;2022-07-24T09:58:24;22.90;63.10
2054;DHT22;1032;52.542;13.440;2022-07-24T10:00:53;22.90;63.70
2054;DHT22;1032;52.542;13.440;2022-07-24T10:03:24;22.90;63.60
2054;DHT22;1032;52.542;13.440;2022-07-24T10:05:56;22.90;63.90
2054;DHT22;1032;52.542;13.440;2022-07-24T10:08:23;23.00;63.90
2054;DHT22;1032;52.542;13.440;2022-07-24T10:10:50;23.00;63.90
2054;DHT22;1032;52.542;13.440;2022-07-24T10:13:17;23.00;62.90
2054;DHT22;1032;52.542;13.440;2022-07-24T10:15:51;23.40;62.90
2054;DHT22;1032;52.542;13.440;2022-07-24T10:18:19;23.40;62.10
2054;DHT22;1032;52.542;13.440;2022-07-24T10:20:48;23.20;62.60
2054;DHT22;1032;52.542;13.440;2022-07-24T10:23:25;23.30;62.50
2054;DHT22;1032;52.542;13.440;2022-07-24T10:25:58;23.30;62.20
2054;DHT22;1032;52.542;13.440;2022-07-24T10:28:37;22.90;62.00
2054;DHT22;1032;52.542;13.440;2022-07-24T10:31:06;23.30;62.60
2054;DHT22;1032;52.542;13.440;2022-07-24T10:33:34;23.30;62.50
2054;DHT22;1032;52.542;13.440;2022-07-24T10:36:06;23.60;62.80
2054;DHT22;1032;52.542;13.440;2022-07-24T10:38:38;23.40;62.70
2054;DHT22;1032;52.542;13.440;2022-07-24T10:41:13;23.40;62.80
2054;DHT22;1032;52.542;13.440;2022-07-24T10:44:14;23.50;62.90
2054;DHT22;1032;52.542;13.440;2022-07-24T10:46:59;23.50;62.60
2054;DHT22;1032;52.542;13.440;2022-07-24T10:49:46;23.50;62.60
2054;DHT22;1032;52.542;13.440;2022-07-24T10:52:29;23.60;63.00
2054;DHT22;1032;52.542;13.440;2022-07-24T10:55:32;23.90;63.30
2054;DHT22;1032;52.542;13.440;2022-07-24T10:58:01;23.70;62.80
2054;DHT22;1032;52.542;13.440;2022-07-24T11:00:32;23.70;62.90
2054;DHT22;1032;52.542;13.440;2022-07-24T11:03:02;23.80;62.50
2054;DHT22;1032;52.542;13.440;2022-07-24T11:05:32;23.90;62.40
2054;DHT22;1032;52.542;13.440;2022-07-24T11:08:25;23.90;62.20
2054;DHT22;1032;52.542;13.440;2022-07-24T11:10:58;24.20;61.90
2054;DHT22;1032;52.542;13.440;2022-07-24T11:13:51;24.00;61.90
2054;DHT22;1032;52.542;13.440;2022-07-24T11:16:20;24.00;60.90
2054;DHT22;1032;52.542;13.440;2022-07-24T11:19:25;23.90;61.40
2054;DHT22;1032;52.542;13.440;2022-07-24T11:22:05;23.90;61.50
2054;DHT22;1032;52.542;13.440;2022-07-24T11:24:32;23.90;60.90
2054;DHT22;1032;52.542;13.440;2022-07-24T11:27:05;23.90;61.70
2054;DHT22;1032;52.542;13.440;2022-07-24T11:29:34;24.00;61.60
2054;DHT22;1032;52.542;13.440;2022-07-24T11:32:03;24.00;61.50
2054;DHT22;1032;52.542;13.440;2022-07-24T11:34:31;23.80;60.80
2054;DHT22;1032;52.542;13.440;2022-07-24T11:36:59;24.20;61.10
2054;DHT22;1032;52.542;13.440;2022-07-24T11:39:28;24.20;61.10
2054;DHT22;1032;52.542;13.440;2022-07-24T11:41:57;24.40;61.00
2054;DHT22;1032;52.542;13.440;2022-07-24T11:44:27;24.70;61.00
2054;DHT22;1032;52.542;13.440;2022-07-24T11:46:56;24.60;60.60
2054;DHT22;1032;52.542;13.440;2022-07-24T11:49:24;24.40;60.30
2054;DHT22;1032;52.542;13.440;2022-07-24T11:51:52;24.40;59.90
2054;DHT22;1032;52.542;13.440;2022-07-24T11:54:21;24.40;60.00
2054;DHT22;1032;52.542;13.440;2022-07-24T11:56:48;24.30;59.80
2054;DHT22;1032;52.542;13.440;2022-07-24T11:59:27;24.50;59.40
2054;DHT22;1032;52.542;13.440;2022-07-24T12:01:56;24.60;59.30
2054;DHT22;1032;52.542;13.440;2022-07-24T12:04:28;24.60;59.60
2054;DHT22;1032;52.542;13.440;2022-07-24T12:06:55;24.60;59.60
2054;DHT22;1032;52.542;13.440;2022-07-24T12:09:22;24.60;59.50
2054;DHT22;1032;52.542;13.440;2022-07-24T12:11:49;24.80;59.30
2054;DHT22;1032;52.542;13.440;2022-07-24T12:14:19;24.70;58.70
2054;DHT22;1032;52.542;13.440;2022-07-24T12:16:53;25.20;58.90
2054;DHT22;1032;52.542;13.440;2022-07-24T12:19:22;24.90;58.80
2054;DHT22;1032;52.542;13.440;2022-07-24T12:21:51;24.90;58.90
2054;DHT22;1032;52.542;13.440;2022-07-24T12:24:19;25.20;59.30
2054;DHT22;1032;52.542;13.440;2022-07-24T12:26:50;25.00;59.20
2054;DHT22;1032;52.542;13.440;2022-07-24T12:29:18;25.10;59.00
2054;DHT22;1032;52.542;13.440;2022-07-24T12:31:46;25.00;58.70
2054;DHT22;1032;52.542;13.440;2022-07-24T12:34:14;25.20;58.70
2054;DHT22;1032;52.542;13.440;2022-07-24T12:36:40;25.10;58.60
2054;DHT22;1032;52.542;13.440;2022-07-24T12:39:07;25.00;58.70
2054;DHT22;1032;52.542;13.440;2022-07-24T12:41:43;25.50;58.90
2054;DHT22;1032;52.542;13.440;2022-07-24T12:44:10;24.90;58.30
2054;DHT22;1032;52.542;13.440;2022-07-24T12:46:39;25.30;58.30
2054;DHT22;1032;52.542;13.440;2022-07-24T12:49:07;25.00;57.70
2054;DHT22;1032;52.542;13.440;2022-07-24T12:51:49;25.30;57.50
2054;DHT22;1032;52.542;13.440;2022-07-24T12:54:18;25.50;57.50
2054;DHT22;1032;52.542;13.440;2022-07-24T12:56:45;25.30;57.60
2054;DHT22;1032;52.542;13.440;2022-07-24T12:59:27;25.30;57.30
2054;DHT22;1032;52.542;13.440;2022-07-24T13:01:55;25.40;56.90
2054;DHT22;1032;52.542;13.440;2022-07-24T13:04:24;25.30;57.10
2054;DHT22;1032;52.542;13.440;2022-07-24T13:06:53;25.40;57.00
2054;DHT22;1032;52.542;13.440;2022-07-24T13:09:21;25.40;57.10
2054;DHT22;1032;52.542;13.440;2022-07-24T13:11:51;25.50;56.70
2054;DHT22;1032;52.542;13.440;2022-07-24T13:14:19;25.60;56.50
2054;DHT22;1032;52.542;13.440;2022-07-24T13:16:47;25.50;56.50
2054;DHT22;1032;52.542;13.440;2022-07-24T13:19:15;25.50;56.40
2054;DHT22;1032;52.542;13.440;2022-07-24T13:21:42;25.50;56.30
2054;DHT22;1032;52.542;13.440;2022-07-24T13:24:12;25.50;56.00
2054;DHT22;1032;52.542;13.440;2022-07-24T13:26:40;25.50;55.70
2054;DHT22;1032;52.542;13.440;2022-07-24T13:29:07;25.50;55.40
2054;DHT22;1032;52.542;13.440;2022-07-24T13:31:35;25.50;55.50
2054;DHT22;1032;52.542;13.440;2022-07-24T13:34:02;25.90;55.50
2054;DHT22;1032;52.542;13.440;2022-07-24T13:36:29;25.50;55.80
2054;DHT22;1032;52.542;13.440;2022-07-24T13:38:55;25.50;55.30
2054;DHT22;1032;52.542;13.440;2022-07-24T13:41:23;25.60;55.10
2054;DHT22;1032;52.542;13.440;2022-07-24T13:43:50;25.70;55.20
2054;DHT22;1032;52.542;13.440;2022-07-24T13:46:17;25.80;55.20
2054;DHT22;1032;52.542;13.440;2022-07-24T13:48:45;25.80;55.10
2054;DHT22;1032;52.542;13.440;2022-07-24T13:51:12;25.80;54.50
2054;DHT22;1032;52.542;13.440;2022-07-24T13:53:38;25.80;54.30
2054;DHT22;1032;52.542;13.440;2022-07-24T13:56:06;25.80;54.50
2054;DHT22;1032;52.542;13.440;2022-07-24T13:58:34;25.80;54.80
2054;DHT22;1032;52.542;13.440;2022-07-24T14:01:03;25.70;54.80
2054;DHT22;1032;52.542;13.440;2022-07-24T14:03:30;25.80;54.90
2054;DHT22;1032;52.542;13.440;2022-07-24T14:05:57;25.80;54.80
2054;DHT22;1032;52.542;13.440;2022-07-24T14:08:23;25.80;55.00
2054;DHT22;1032;52.542;13.440;2022-07-24T14:10:50;25.90;55.20
2054;DHT22;1032;52.542;13.440;2022-07-24T14:13:17;25.90;55.00
2054;DHT22;1032;52.542;13.440;2022-07-24T14:15:45;25.90;55.00
2054;DHT22;1032;52.542;13.440;2022-07-24T14:18:11;26.00;55.00
2054;DHT22;1032;52.542;13.440;2022-07-24T14:20:38;26.00;54.90
2054;DHT22;1032;52.542;13.440;2022-07-24T14:23:05;26.00;54.50
2054;DHT22;1032;52.542;13.440;2022-07-24T14:25:31;26.00;54.10
2054;DHT22;1032;52.542;13.440;2022-07-24T14:27:58;25.70;54.10
2054;DHT22;1032;52.542;13.440;2022-07-24T14:30:25;26.00;54.10
2054;DHT22;1032;52.542;13.440;2022-07-24T14:32:53;26.00;54.00
2054;DHT22;1032;52.542;13.440;2022-07-24T14:35:19;26.10;53.60
2054;DHT22;1032;52.542;13.440;2022-07-24T14:37:46;26.20;53.20
2054;DHT22;1032;52.542;13.440;2022-07-24T14:40:13;26.20;52.80
2054;DHT22;1032;52.542;13.440;2022-07-24T14:42:40;26.20;52.60
2054;DHT22;1032;52.542;13.440;2022-07-24T14:45:07;26.20;52.70
2054;DHT22;1032;52.542;13.440;2022-07-24T14:47:33;26.20;52.70
2054;DHT22;1032;52.542;13.440;2022-07-24T14:50:01;25.80;52.30
2054;DHT22;1032;52.542;13.440;2022-07-24T14:52:28;26.20;52.60
2054;DHT22;1032;52.542;13.440;2022-07-24T14:54:55;26.20;52.40
2054;DHT22;1032;52.542;13.440;2022-07-24T14:57:21;26.30;52.20
2054;DHT22;1032;52.542;13.440;2022-07-24T14:59:48;26.30;51.20
2054;DHT22;1032;52.542;13.440;2022-07-24T15:02:14;26.40;50.30
2054;DHT22;1032;52.542;13.440;2022-07-24T15:04:41;26.40;50.60
2054;DHT22;1032;52.542;13.440;2022-07-24T15:07:09;26.80;51.60
2054;DHT22;1032;52.542;13.440;2022-07-24T15:09:36;26.40;51.50
2054;DHT22;1032;52.542;13.440;2022-07-24T15:12:03;26.40;51.60
2054;DHT22;1032;52.542;13.440;2022-07-24T15:14:30;26.50;51.20
2054;DHT22;1032;52.542;13.440;2022-07-24T15:16:56;26.50;50.80
2054;DHT22;1032;52.542;13.440;2022-07-24T15:19:23;26.50;50.90
2054;DHT22;1032;52.542;13.440;2022-07-24T15:21:50;26.50;50.40
2054;DHT22;1032;52.542;13.440;2022-07-24T15:24:18;26.50;50.30
2054;DHT22;1032;52.542;13.440;2022-07-24T15:26:45;26.50;50.20
2054;DHT22;1032;52.542;13.440;2022-07-24T15:29:13;26.50;50.50
2054;DHT22;1032;52.542;13.440;2022-07-24T15:31:40;26.50;50.70
2054;DHT22;1032;52.542;13.440;2022-07-24T15:34:06;26.60;50.80
2054;DHT22;1032;52.542;13.440;2022-07-24T15:36:33;26.60;51.00
2054;DHT22;1032;52.542;13.440;2022-07-24T15:39:00;26.60;51.20
2054;DHT22;1032;52.542;13.440;2022-07-24T15:41:28;26.60;51.00
2054;DHT22;1032;52.542;13.440;2022-07-24T15:43:54;26.60;50.80
2054;DHT22;1032;52.542;13.440;2022-07-24T15:46:21;26.60;51.10
2054;DHT22;1032;52.542;13.440;2022-07-24T15:48:48;26.60;51.20
2054;DHT22;1032;52.542;13.440;2022-07-24T15:51:14;26.70;51.30
2054;DHT22;1032;52.542;13.440;2022-07-24T15:53:41;26.70;51.50